Time;durP1;ratioP1;P1;durP2;ratioP2;P2;SDS_P1;SDS_P2;PMS_P1;PMS_P2;Temp;Humidity;BMP_temperature;BMP_pressure;BME280_temperature;BME280_humidity;BME280_pressure;Samples;Min_cycle;Max_cycle;Signal;HPM_P1;HPM_P2
2023/03/17 00:04:31;;;;;;;0.88;0.70;;;;;;;17.40;50.32;100505.75;20951682;28;20056;-90
2023/03/17 00:14:33;;;;;;;1.08;0.75;;;;;;;17.43;50.26;100492.00;20952750;28;20024;-91
2023/03/17 00:24:35;;;;;;;0.80;0.70;;;;;;;17.45;49.96;100503.47;20898692;28;20049;-91
2023/03/17 00:34:37;;;;;;;0.85;0.85;;;;;;;17.47;49.76;100506.03;20879745;28;20052;-91
2023/03/17 00:44:39;;;;;;;0.70;0.70;;;;;;;17.35;49.61;100498.09;20880080;28;20045;-92
2023/03/17 00:54:41;;;;;;;0.93;0.82;;;;;;;17.46;49.31;100526.72;20879340;28;20049;-91
2023/03/17 01:04:44;;;;;;;1.08;0.70;;;;;;;17.45;49.38;100508.88;20861104;28;20094;-92
2023/03/17 01:14:53;;;;;;;0.90;0.65;;;;;;;17.45;48.95;100476.56;20860046;28;20560;-91
2023/03/17 01:24:55;;;;;;;1.02;0.57;;;;;;;17.44;48.82;100469.50;20858199;28;20489;-92
2023/03/17 01:34:57;;;;;;;2.05;0.70;;;;;;;17.44;48.56;100480.25;20856014;28;20049;-92
2023/03/17 01:45:01;;;;;;;1.20;0.73;;;;;;;17.43;48.34;100461.53;20859159;28;20048;-91
2023/03/17 01:55:16;;;;;;;0.60;0.60;;;;;;;17.40;48.09;100450.09;20877714;28;20052;-92
2023/03/17 02:05:22;;;;;;;0.75;0.70;;;;;;;17.42;47.99;100420.34;20875032;28;20051;-92
2023/03/17 02:15:41;;;;;;;1.15;0.75;;;;;;;17.42;47.63;100439.19;20876239;28;20124;-91
2023/03/17 02:25:44;;;;;;;0.75;0.70;;;;;;;17.42;47.40;100422.19;20856843;28;20664;-92
2023/03/17 02:35:48;;;;;;;;;;;;;;;17.43;47.36;100419.34;20870678;28;20049;-93
2023/03/17 02:45:49;;;;;;;1.17;0.73;;;;;;;17.35;47.14;100405.78;20888405;28;19925;-91
2023/03/17 02:55:51;;;;;;;1.00;0.70;;;;;;;17.23;47.07;100367.44;20886624;28;20155;-91
2023/03/17 03:05:53;;;;;;;1.02;0.65;;;;;;;17.42;46.93;100423.03;20886601;28;20094;-92
2023/03/17 03:15:55;;;;;;;1.00;0.73;;;;;;;17.42;46.74;100401.50;20852418;28;20467;-91
2023/03/17 03:25:56;;;;;;;1.25;0.68;;;;;;;17.42;46.41;100393.44;20851612;28;20055;-92
2023/03/17 03:35:58;;;;;;;0.85;0.70;;;;;;;17.38;46.55;100392.03;20883961;28;20044;-92
2023/03/17 03:46:00;;;;;;;0.63;0.63;;;;;;;17.39;46.26;100393.75;20864846;28;20051;-92
2023/03/17 03:56:02;;;;;;;1.45;0.82;;;;;;;17.32;46.16;100381.88;20882017;28;20051;-91
2023/03/17 04:06:04;;;;;;;0.77;0.60;;;;;;;17.40;46.00;100398.97;20864026;28;20079;-91
2023/03/17 04:16:05;;;;;;;1.23;0.88;;;;;;;17.40;45.93;100385.50;20863736;28;20053;-88
2023/03/17 04:26:07;;;;;;;0.68;0.60;;;;;;;17.40;45.79;100388.19;20863979;28;20098;-92
2023/03/17 04:36:16;;;;;;;1.00;0.80;;;;;;;17.40;45.59;100396.25;20881588;28;20106;-92
2023/03/17 04:46:17;;;;;;;1.00;0.77;;;;;;;17.37;45.54;100404.63;20879975;28;20045;-92
2023/03/17 04:56:19;;;;;;;1.38;0.80;;;;;;;17.40;45.36;100395.44;20878759;28;20409;-91
2023/03/17 05:06:21;;;;;;;0.70;0.70;;;;;;;17.40;45.30;100390.06;20861892;28;20060;-92
2023/03/17 05:16:23;;;;;;;0.80;0.63;;;;;;;17.40;45.20;100393.56;20860780;28;20068;-91
2023/03/17 05:26:25;;;;;;;0.80;0.80;;;;;;;17.40;45.10;100403.50;20876289;28;20680;-93
2023/03/17 05:36:27;;;;;;;1.13;0.77;;;;;;;17.40;45.05;100419.66;20875656;28;20635;-92
2023/03/17 05:46:29;;;;;;;0.93;0.77;;;;;;;17.41;44.96;100415.97;20875666;28;20068;-92
2023/03/17 05:56:32;;;;;;;0.90;0.77;;;;;;;17.34;44.76;100387.94;20874249;28;20055;-91
2023/03/17 06:06:34;;;;;;;0.80;0.70;;;;;;;17.35;44.69;100405.78;20874585;28;20068;-94
2023/03/17 06:16:35;;;;;;;0.65;0.65;;;;;;;17.39;44.75;100402.63;20889682;28;20045;-92
2023/03/17 06:26:37;;;;;;;2.05;0.93;;;;;;;17.34;44.68;100398.72;20890251;28;20045;-91
2023/03/17 06:36:40;;;;;;;0.75;0.73;;;;;;;17.45;44.62;100394.97;20890534;28;20049;-92
2023/03/17 06:46:41;;;;;;;0.90;0.70;;;;;;;17.47;44.51;100380.41;20879225;28;20623;-92
2023/03/17 06:56:43;;;;;;;0.80;0.80;;;;;;;17.51;44.45;100379.09;20871705;28;20044;-92
2023/03/17 07:06:45;;;;;;;0.95;0.63;;;;;;;17.49;44.57;100380.25;20888504;28;20131;-92
2023/03/17 07:16:47;;;;;;;0.85;0.73;;;;;;;17.49;44.53;100386.47;20885445;28;20769;-92
2023/03/17 07:26:49;;;;;;;0.88;0.65;;;;;;;17.46;44.33;100400.22;20871105;28;20053;-92
2023/03/17 07:36:51;;;;;;;0.88;0.80;;;;;;;17.42;44.48;100396.13;20872470;28;20576;-91
2023/03/17 07:46:56;;;;;;;1.55;0.60;;;;;;;17.54;44.44;100405.72;20911039;28;20041;-96
2023/03/17 07:56:58;;;;;;;0.95;0.80;;;;;;;17.74;44.39;100388.66;20920897;28;20063;-96
2023/03/17 08:07:00;;;;;;;0.63;0.50;;;;;;;17.81;44.58;100368.22;20918021;28;20154;-92
2023/03/17 08:17:01;;;;;;;1.27;0.88;;;;;;;17.81;44.63;100354.75;20915942;28;20060;-92
2023/03/17 08:27:03;;;;;;;0.57;0.57;;;;;;;17.82;44.49;100351.94;20872255;28;20409;-88
2023/03/17 08:37:07;;;;;;;0.90;0.77;;;;;;;17.88;44.41;100352.31;20838394;28;20075;-89
2023/03/17 08:47:12;;;;;;;0.93;0.82;;;;;;;18.02;44.55;100343.75;20867399;28;20304;-80
2023/03/17 08:57:14;;;;;;;5.47;1.08;;;;;;;18.08;46.72;100347.72;20834057;28;20052;-85
2023/03/17 09:07:16;;;;;;;1.27;0.75;;;;;;;18.33;47.26;100366.81;20841621;28;20049;-82
2023/03/17 09:17:17;;;;;;;3.13;0.82;;;;;;;18.36;47.36;100372.78;20831179;28;20110;-80
2023/03/17 09:27:19;;;;;;;4.95;1.38;;;;;;;18.34;48.37;100377.47;20869415;28;20044;-85
2023/03/17 09:37:21;;;;;;;1.50;1.00;;;;;;;18.39;48.53;100372.47;20848501;28;20386;-88
2023/03/17 09:47:31;;;;;;;4.38;1.60;;;;;;;18.41;50.67;100381.25;20851139;28;20050;-92
2023/03/17 09:57:39;;;;;;;3.47;1.10;;;;;;;18.48;51.04;100383.31;20876315;28;20049;-87
2023/03/17 10:07:56;;;;;;;2.63;1.30;;;;;;;18.45;50.30;100370.16;20857111;28;20045;-87
2023/03/17 10:17:57;;;;;;;1.88;1.30;;;;;;;18.47;49.62;100378.94;20854867;28;20048;-87
2023/03/17 10:28:07;;;;;;;2.17;1.25;;;;;;;18.39;50.02;100367.06;20848815;28;20053;-84
2023/03/17 10:38:20;;;;;;;1.00;0.95;;;;;;;18.46;50.31;100364.63;20876569;28;20501;-86
2023/03/17 10:48:22;;;;;;;2.53;1.10;;;;;;;18.44;49.93;100357.69;20850182;28;20221;-86
2023/03/17 10:58:44;;;;;;;1.67;1.00;;;;;;;18.41;49.89;100338.13;20862768;28;20041;-86
2023/03/17 11:08:55;;;;;;;2.53;1.15;;;;;;;18.39;49.61;100333.91;20860079;28;20056;-87
2023/03/17 11:18:58;;;;;;;2.00;1.20;;;;;;;18.37;49.47;100339.44;20853910;28;20056;-88
2023/03/17 11:29:09;;;;;;;1.92;1.00;;;;;;;18.46;49.01;100351.16;20848502;28;20051;-92
2023/03/17 11:39:16;;;;;;;1.77;1.10;;;;;;;18.53;48.79;100365.69;20855808;28;20072;-91
2023/03/17 11:49:21;;;;;;;2.63;1.02;;;;;;;18.53;48.51;100367.53;20844695;28;20056;-89
2023/03/17 11:59:29;;;;;;;;;;;;;;;18.59;48.41;100406.50;20880331;28;20053;-90
2023/03/17 12:09:41;;;;;;;1.85;1.05;;;;;;;18.58;48.42;100394.03;20903764;28;19921;-88
2023/03/17 12:20:17;;;;;;;1.42;0.95;;;;;;;18.59;48.32;100387.66;20888727;28;20135;-87
2023/03/17 12:30:44;;;;;;;1.13;1.00;;;;;;;18.57;48.24;100385.13;20878779;28;20041;-94
2023/03/17 12:41:19;;;;;;;0.95;0.90;;;;;;;18.62;48.43;100393.59;20855689;28;20098;-89
2023/03/17 12:51:51;;;;;;;1.40;1.30;;;;;;;18.63;48.38;100384.50;20873794;28;20102;-88
2023/03/17 13:01:54;;;;;;;2.38;1.15;;;;;;;18.65;48.24;100378.94;20857535;28;20497;-88
2023/03/17 13:12:02;;;;;;;1.73;1.10;;;;;;;18.65;48.28;100373.53;20834501;28;20052;-87
2023/03/17 13:22:04;;;;;;;1.60;1.10;;;;;;;18.66;48.34;100384.19;20871113;28;20092;-90
2023/03/17 13:32:14;;;;;;;0.90;0.70;;;;;;;18.68;48.03;100392.97;20857520;28;20122;-89
2023/03/17 13:42:36;;;;;;;1.50;1.10;;;;;;;18.68;48.17;100375.94;20881400;28;20045;-91
2023/03/17 13:53:00;;;;;;;1.73;1.02;;;;;;;18.69;48.23;100361.44;20883163;28;20049;-87
2023/03/17 14:03:02;;;;;;;1.75;1.02;;;;;;;18.70;48.33;100365.84;20827906;28;20064;-90
2023/03/17 14:13:23;;;;;;;1.52;0.93;;;;;;;18.68;48.42;100366.00;20848171;28;20052;-90
2023/03/17 14:23:25;;;;;;;0.88;0.80;;;;;;;18.68;48.46;100360.63;20828750;28;20124;-91
2023/03/17 14:33:26;;;;;;;1.52;1.00;;;;;;;18.66;48.62;100351.84;20847178;28;20135;-94
2023/03/17 14:43:30;;;;;;;0.98;0.82;;;;;;;18.64;48.42;100342.19;20877122;28;20052;-91
2023/03/17 14:53:34;;;;;;;0.98;0.90;;;;;;;18.58;48.50;100327.50;20848871;28;20127;-90
2023/03/17 15:03:41;;;;;;;1.42;0.95;;;;;;;18.51;48.53;100327.28;20879475;28;20076;-95
2023/03/17 15:13:42;;;;;;;1.90;0.80;;;;;;;18.53;48.65;100322.56;20859777;28;20041;-93
2023/03/17 15:23:46;;;;;;;1.48;0.90;;;;;;;18.51;48.72;100319.19;20838350;28;20432;-90
2023/03/17 15:33:50;;;;;;;2.17;1.13;;;;;;;18.46;48.68;100308.03;20867932;28;20725;-91
2023/03/17 15:43:52;;;;;;;1.27;0.80;;;;;;;18.47;48.57;100298.06;20863387;28;20127;-92
2023/03/17 15:53:54;;;;;;;2.10;1.10;;;;;;;18.44;48.80;100303.78;20867573;28;20048;-87
2023/03/17 16:03:55;;;;;;;1.58;0.93;;;;;;;18.46;48.76;100307.16;20903207;28;20390;-93
2023/03/17 16:14:00;;;;;;;1.35;1.00;;;;;;;18.36;48.77;100291.91;20916089;28;20463;-95
2023/03/17 16:24:01;;;;;;;0.80;0.80;;;;;;;18.45;48.66;100300.94;20842667;28;20056;-95
2023/03/17 16:34:14;;;;;;;1.08;0.77;;;;;;;18.37;48.92;100293.63;20857825;28;20041;-95
2023/03/17 16:44:17;;;;;;;1.30;0.93;;;;;;;18.46;48.99;100309.84;20848730;28;20063;-85
2023/03/17 16:54:19;;;;;;;1.23;0.98;;;;;;;18.39;49.12;100326.66;20833273;28;20088;-88
2023/03/17 17:04:20;;;;;;;1.88;1.10;;;;;;;18.25;49.50;100314.53;20846710;28;20144;-84
2023/03/17 17:14:22;;;;;;;2.08;1.30;;;;;;;18.21;49.43;100320.41;20851693;28;20445;-84
2023/03/17 17:24:24;;;;;;;1.52;1.15;;;;;;;18.13;49.75;100325.72;20805787;28;20074;-88
2023/03/17 17:34:28;;;;;;;1.25;1.02;;;;;;;18.11;49.90;100325.84;20867279;28;20075;-91
2023/03/17 17:44:30;;;;;;;1.60;1.30;;;;;;;18.07;50.08;100341.47;20885925;28;20496;-91
2023/03/17 17:54:33;;;;;;;2.13;1.20;;;;;;;18.00;50.23;100340.34;20840019;28;20045;-86
2023/03/17 18:04:34;;;;;;;2.70;1.23;;;;;;;18.03;50.39;100350.84;20832159;28;20515;-88
2023/03/17 18:14:36;;;;;;;2.20;1.60;;;;;;;18.01;50.46;100355.53;20822441;28;20088;-87
2023/03/17 18:24:38;;;;;;;2.20;1.60;;;;;;;17.99;50.70;100349.41;20816040;28;20045;-86
2023/03/17 18:34:42;;;;;;;2.83;1.33;;;;;;;17.98;50.59;100339.66;20826071;28;20044;-88
2023/03/17 18:44:44;;;;;;;4.23;2.00;;;;;;;17.95;50.73;100340.81;20831825;28;20044;-87
2023/03/17 18:54:46;;;;;;;3.25;1.45;;;;;;;17.95;50.85;100329.19;20846476;28;20049;-87
2023/03/17 19:04:47;;;;;;;2.72;1.80;;;;;;;17.93;50.91;100329.34;20831826;28;20135;-88
2023/03/17 19:14:49;;;;;;;2.83;2.10;;;;;;;17.91;50.84;100319.72;20841928;28;20132;-83
2023/03/17 19:24:52;;;;;;;2.97;1.70;;;;;;;17.91;51.09;100331.34;20841640;28;20057;-84
2023/03/17 19:34:53;;;;;;;3.42;2.10;;;;;;;17.90;51.14;100318.88;20805029;28;20098;-81
2023/03/17 19:44:55;;;;;;;1.77;1.58;;;;;;;17.91;51.20;100314.31;20866869;28;20045;-84
2023/03/17 19:54:59;;;;;;;2.78;1.60;;;;;;;17.81;51.33;100295.53;20881185;28;20079;-84
2023/03/17 20:05:01;;;;;;;2.55;1.88;;;;;;;17.85;51.34;100301.47;20880160;28;20106;-84
2023/03/17 20:15:05;;;;;;;3.35;2.05;;;;;;;17.83;51.32;100294.38;20862655;28;20107;-84
2023/03/17 20:25:09;;;;;;;2.47;1.90;;;;;;;17.86;51.27;100290.53;20879344;28;20560;-84
2023/03/17 20:35:10;;;;;;;3.15;2.50;;;;;;;17.85;51.37;100306.84;20876972;28;20408;-84
2023/03/17 20:45:14;;;;;;;3.42;2.40;;;;;;;17.83;51.38;100307.84;20861434;28;20045;-84
2023/03/17 20:55:16;;;;;;;3.28;2.72;;;;;;;17.77;51.32;100288.75;20860092;28;20060;-84
2023/03/17 21:05:23;;;;;;;3.42;2.33;;;;;;;17.80;51.39;100292.00;20876605;28;20048;-84
2023/03/17 21:15:24;;;;;;;;;;;;;;;17.80;51.38;100297.38;20876531;28;20447;-84
2023/03/17 21:25:27;;;;;;;3.05;2.53;;;;;;;17.77;51.44;100292.31;20876080;28;19928;-84
2023/03/17 21:35:29;;;;;;;4.57;3.20;;;;;;;17.74;51.24;100295.28;20875670;28;20401;-84
2023/03/17 21:45:34;;;;;;;4.65;3.17;;;;;;;17.65;51.18;100267.41;20875356;28;20095;-84
2023/03/17 21:55:36;;;;;;;3.60;3.03;;;;;;;17.72;51.18;100283.84;20874810;28;20132;-84
2023/03/17 22:05:37;;;;;;;4.00;2.80;;;;;;;17.76;51.13;100293.28;20873817;28;20056;-83
2023/03/17 22:15:41;;;;;;;3.47;2.53;;;;;;;17.72;51.11;100291.03;20874281;28;20460;-83
2023/03/17 22:25:43;;;;;;;3.92;2.80;;;;;;;17.62;51.10;100277.63;20874028;28;20385;-84
2023/03/17 22:35:45;;;;;;;3.88;2.47;;;;;;;17.62;51.07;100283.88;20873736;28;20045;-84
2023/03/17 22:45:47;;;;;;;3.70;2.80;;;;;;;17.75;51.10;100296.13;20855855;28;20060;-84
2023/03/17 22:55:48;;;;;;;2.65;2.13;;;;;;;17.61;51.19;100281.31;20881932;28;20041;-84
2023/03/17 23:05:55;;;;;;;3.88;2.22;;;;;;;17.73;51.34;100307.06;20886688;28;20049;-83
2023/03/17 23:16:00;;;;;;;2.55;2.03;;;;;;;17.68;51.41;100302.13;20886858;28;20056;-84
2023/03/17 23:26:02;;;;;;;3.03;1.80;;;;;;;17.73;51.00;100323.22;20885628;28;20049;-84
2023/03/17 23:36:06;;;;;;;2.33;1.92;;;;;;;17.72;51.29;100324.22;20884012;28;20052;-84
2023/03/17 23:46:08;;;;;;;2.45;2.00;;;;;;;17.48;51.29;100287.91;20866575;28;20098;-84
2023/03/17 23:56:11;;;;;;;3.78;1.90;;;;;;;17.72;51.35;100339.50;20865372;28;20047;-84
